createdAt,value
2023-02-27T00:01:08.434Z,101160.63
2023-02-27T00:03:38.530Z,101170.41
2023-02-27T00:06:07.392Z,101167.00
2023-02-27T00:08:36.655Z,101160.69
2023-02-27T00:11:06.313Z,101163.66
2023-02-27T00:13:35.343Z,101164.91
2023-02-27T00:16:05.181Z,101165.56
2023-02-27T00:18:33.677Z,101160.34
2023-02-27T00:21:02.371Z,101162.38
2023-02-27T00:23:30.987Z,101172.91
2023-02-27T00:26:01.018Z,101169.38
2023-02-27T00:28:29.874Z,101173.94
2023-02-27T00:30:58.632Z,101172.00
2023-02-27T00:33:27.267Z,101180.44
2023-02-27T00:36:00.919Z,101185.50
2023-02-27T00:38:29.864Z,101172.34
2023-02-27T00:41:01.156Z,101178.84
2023-02-27T00:43:29.912Z,101181.44
2023-02-27T00:45:58.485Z,101178.31
2023-02-27T00:48:27.478Z,101177.28
2023-02-27T00:50:56.372Z,101180.69
2023-02-27T00:53:25.173Z,101176.38
2023-02-27T00:55:56.074Z,101172.16
2023-02-27T00:58:24.536Z,101171.16
2023-02-27T01:00:54.105Z,101174.25
2023-02-27T01:03:23.673Z,101169.31
2023-02-27T01:05:53.368Z,101169.25
2023-02-27T01:08:23.610Z,101172.03
2023-02-27T01:10:55.244Z,101167.50
2023-02-27T01:13:24.252Z,101167.22
2023-02-27T01:15:53.235Z,101168.75
2023-02-27T01:18:21.702Z,101165.00
2023-02-27T01:20:54.850Z,101174.00
2023-02-27T01:23:24.839Z,101171.09
2023-02-27T01:25:53.712Z,101171.00
2023-02-27T01:28:24.589Z,101163.75
2023-02-27T01:30:53.149Z,101161.03
2023-02-27T01:33:22.566Z,101160.97
2023-02-27T01:35:51.041Z,101166.88
2023-02-27T01:38:20.357Z,101167.72
2023-02-27T01:40:53.046Z,101165.75
2023-02-27T01:43:23.714Z,101165.88
2023-02-27T01:45:52.541Z,101167.63
2023-02-27T01:48:41.053Z,101172.69
2023-02-27T01:51:15.433Z,101167.28
2023-02-27T01:53:46.965Z,101167.81
2023-02-27T01:56:31.630Z,101169.84
2023-02-27T01:59:05.510Z,101177.34
2023-02-27T02:01:36.344Z,101187.31
2023-02-27T02:04:26.236Z,101185.78
2023-02-27T02:07:09.660Z,101181.31
2023-02-27T02:09:43.532Z,101182.75
2023-02-27T02:12:15.205Z,101180.88
2023-02-27T02:14:43.886Z,101180.81
2023-02-27T02:17:32.896Z,101186.03
2023-02-27T02:20:48.741Z,101183.94
2023-02-27T02:23:47.550Z,101186.53
2023-02-27T02:26:54.480Z,101180.97
2023-02-27T02:30:01.083Z,101170.41
2023-02-27T02:33:11.302Z,101168.03
2023-02-27T02:36:13.215Z,101172.50
2023-02-27T02:39:39.105Z,101168.47
2023-02-27T02:42:23.672Z,101171.03
2023-02-27T02:44:58.070Z,101163.91
2023-02-27T02:48:03.097Z,101175.41
2023-02-27T02:50:45.643Z,101176.44
2023-02-27T02:53:57.993Z,101174.66
2023-02-27T02:56:57.786Z,101179.16
2023-02-27T02:59:41.403Z,101172.81
2023-02-27T03:02:17.451Z,101183.38
2023-02-27T03:04:55.816Z,101181.34
2023-02-27T03:07:37.471Z,101171.03
2023-02-27T03:10:19.479Z,101179.56
2023-02-27T03:12:57.786Z,101189.94
2023-02-27T03:15:46.437Z,101182.00
2023-02-27T03:18:31.351Z,101187.06
2023-02-27T03:21:09.898Z,101181.47
2023-02-27T03:23:47.676Z,101179.41
2023-02-27T03:26:22.371Z,101185.44
2023-02-27T03:29:05.696Z,101183.66
2023-02-27T03:31:48.413Z,101193.97
2023-02-27T03:34:41.388Z,101189.53
2023-02-27T03:37:41.302Z,101201.34
2023-02-27T03:40:41.461Z,101190.75
2023-02-27T03:43:31.728Z,101195.81
2023-02-27T03:46:17.759Z,101194.72
2023-02-27T03:48:47.533Z,101204.34
2023-02-27T03:51:21.640Z,101209.72
2023-02-27T03:53:50.686Z,101202.50
2023-02-27T03:56:27.398Z,101197.81
2023-02-27T03:58:56.106Z,101207.22
2023-02-27T04:01:25.008Z,101207.94
2023-02-27T04:04:01.345Z,101218.25
2023-02-27T04:06:47.971Z,101220.03
2023-02-27T04:10:07.396Z,101222.41
2023-02-27T04:13:14.424Z,101216.41
2023-02-27T04:16:32.763Z,101230.91
2023-02-27T04:19:24.600Z,101239.88
2023-02-27T04:22:36.754Z,101235.13
2023-02-27T04:25:55.581Z,101233.09
2023-02-27T04:28:50.155Z,101239.75
2023-02-27T04:31:52.544Z,101238.81
2023-02-27T04:34:37.696Z,101241.50
2023-02-27T04:37:18.067Z,101244.06
2023-02-27T04:39:55.357Z,101247.34
2023-02-27T04:42:29.828Z,101248.03
2023-02-27T04:45:03.377Z,101243.78
2023-02-27T04:47:38.180Z,101243.13
2023-02-27T04:50:33.666Z,101260.47
2023-02-27T04:53:15.973Z,101253.34
2023-02-27T04:55:50.491Z,101259.72
2023-02-27T04:59:01.630Z,101250.84
2023-02-27T05:01:40.451Z,101256.69
2023-02-27T05:04:12.392Z,101259.41
2023-02-27T05:06:44.804Z,101258.13
2023-02-27T05:09:32.913Z,101258.03
2023-02-27T05:12:30.420Z,101256.91
2023-02-27T05:15:06.948Z,101255.31
2023-02-27T05:17:49.392Z,101251.50
2023-02-27T05:20:21.302Z,101251.41
2023-02-27T05:23:18.877Z,101261.03
2023-02-27T05:26:19.036Z,101261.41
2023-02-27T05:29:11.527Z,101265.13
2023-02-27T05:32:07.879Z,101265.44
2023-02-27T05:34:44.892Z,101263.72
2023-02-27T05:37:18.990Z,101260.19
2023-02-27T05:39:50.272Z,101267.44
2023-02-27T05:42:29.837Z,101273.97
2023-02-27T05:45:22.241Z,101281.84
2023-02-27T05:48:28.239Z,101282.50
2023-02-27T05:50:59.170Z,101285.78
2023-02-27T05:53:32.038Z,101284.22
2023-02-27T05:56:03.148Z,101281.06
2023-02-27T05:58:38.066Z,101277.72
2023-02-27T06:01:09.782Z,101282.16
2023-02-27T06:03:40.694Z,101285.28
2023-02-27T06:06:15.024Z,101281.75
2023-02-27T06:08:43.592Z,101292.13
2023-02-27T06:11:12.170Z,101292.75
2023-02-27T06:13:42.136Z,101287.69
2023-02-27T06:16:13.890Z,101297.31
2023-02-27T06:18:42.347Z,101298.91
2023-02-27T06:21:10.745Z,101300.19
2023-02-27T06:23:39.183Z,101297.47
2023-02-27T06:26:07.740Z,101311.50
2023-02-27T06:28:36.147Z,101305.69
2023-02-27T06:31:04.607Z,101304.94
2023-02-27T06:33:33.205Z,101307.38
2023-02-27T06:36:01.729Z,101308.81
2023-02-27T06:38:30.146Z,101314.75
2023-02-27T06:40:58.939Z,101317.19
2023-02-27T06:43:27.501Z,101316.94
2023-02-27T06:45:56.729Z,101331.56
2023-02-27T06:48:25.214Z,101327.91
2023-02-27T06:50:57.665Z,101330.13
2023-02-27T06:53:26.380Z,101339.53
2023-02-27T06:55:54.835Z,101333.25
2023-02-27T06:58:24.754Z,101335.34
2023-02-27T07:00:53.181Z,101335.84
2023-02-27T07:03:21.562Z,101332.19
2023-02-27T07:05:50.035Z,101347.13
2023-02-27T07:08:18.528Z,101346.94
2023-02-27T07:10:49.230Z,101331.38
2023-02-27T07:13:19.608Z,101328.47
2023-02-27T07:15:48.947Z,101337.13
2023-02-27T07:18:17.473Z,101337.63
2023-02-27T07:20:45.874Z,101339.34
2023-02-27T07:23:14.300Z,101344.41
2023-02-27T07:25:42.965Z,101333.66
2023-02-27T07:28:11.470Z,101337.63
2023-02-27T07:30:40.141Z,101329.75
2023-02-27T07:33:08.713Z,101339.34
2023-02-27T07:35:37.733Z,101339.25
2023-02-27T07:38:07.580Z,101332.03
2023-02-27T07:40:36.065Z,101339.16
2023-02-27T07:43:04.468Z,101342.19
2023-02-27T07:45:32.931Z,101334.81
2023-02-27T07:48:01.449Z,101337.00
2023-02-27T07:50:29.884Z,101332.81
2023-02-27T07:52:58.405Z,101331.84
2023-02-27T07:55:26.791Z,101341.03
2023-02-27T07:57:55.191Z,101333.09
2023-02-27T08:00:23.712Z,101335.91
2023-02-27T08:02:52.084Z,101348.59
2023-02-27T08:05:20.869Z,101346.53
2023-02-27T08:07:49.249Z,101351.31
2023-02-27T08:10:17.842Z,101351.88
2023-02-27T08:12:46.432Z,101352.06
2023-02-27T08:15:14.966Z,101355.28
2023-02-27T08:17:43.858Z,101360.53
2023-02-27T08:20:13.936Z,101372.00
2023-02-27T08:22:43.202Z,101364.38
2023-02-27T08:25:12.348Z,101370.47
2023-02-27T08:27:43.502Z,101370.94
2023-02-27T08:30:17.103Z,101372.09
2023-02-27T08:32:46.241Z,101373.97
2023-02-27T08:35:14.920Z,101378.06
2023-02-27T08:37:43.316Z,101363.44
2023-02-27T08:40:12.401Z,101367.31
2023-02-27T08:42:40.793Z,101362.69
2023-02-27T08:45:10.777Z,101367.56
2023-02-27T08:47:39.228Z,101375.13
2023-02-27T08:50:08.025Z,101378.38
2023-02-27T08:52:36.568Z,101387.53
2023-02-27T08:55:05.251Z,101389.88
2023-02-27T08:57:33.671Z,101383.25
2023-02-27T09:00:02.279Z,101385.38
2023-02-27T09:02:30.960Z,101377.16
2023-02-27T09:04:59.461Z,101379.50
2023-02-27T09:07:28.245Z,101386.53
2023-02-27T09:09:57.074Z,101380.31
2023-02-27T09:12:25.525Z,101379.97
2023-02-27T09:14:54.003Z,101382.13
2023-02-27T09:17:22.384Z,101395.06
2023-02-27T09:19:51.798Z,101384.94
2023-02-27T09:22:20.876Z,101390.50
2023-02-27T09:24:49.371Z,101388.50
2023-02-27T09:27:17.934Z,101387.78
2023-02-27T09:29:46.341Z,101384.47
2023-02-27T09:32:14.859Z,101387.47
2023-02-27T09:34:43.403Z,101391.91
2023-02-27T09:37:11.952Z,101400.63
2023-02-27T09:39:40.393Z,101396.31
2023-02-27T09:42:19.216Z,101407.78
2023-02-27T09:44:48.391Z,101394.44
2023-02-27T09:47:32.557Z,101391.53
2023-02-27T09:50:07.216Z,101401.44
2023-02-27T09:52:38.532Z,101396.69
2023-02-27T09:55:14.445Z,101402.31
2023-02-27T09:57:45.481Z,101414.06
2023-02-27T10:00:45.943Z,101407.22
2023-02-27T10:03:51.334Z,101408.16
2023-02-27T10:06:40.344Z,101408.09
2023-02-27T10:09:37.285Z,101415.97
2023-02-27T10:12:41.765Z,101414.28
2023-02-27T10:15:37.985Z,101414.53
2023-02-27T10:18:25.512Z,101405.44
2023-02-27T10:21:08.502Z,101417.06
2023-02-27T10:24:08.584Z,101409.00
2023-02-27T10:26:46.494Z,101416.66
2023-02-27T10:29:29.404Z,101409.66
2023-02-27T10:32:26.817Z,101409.34
2023-02-27T10:35:11.398Z,101412.69
2023-02-27T10:37:50.767Z,101410.88
2023-02-27T10:40:20.655Z,101428.22
2023-02-27T10:42:49.363Z,101413.75
2023-02-27T10:45:18.240Z,101418.41
2023-02-27T10:47:46.992Z,101418.41
2023-02-27T10:50:34.863Z,101429.50
2023-02-27T10:53:06.667Z,101426.88
2023-02-27T10:55:39.198Z,101421.34
2023-02-27T10:58:07.899Z,101419.44
2023-02-27T11:00:37.315Z,101421.25
2023-02-27T11:03:06.413Z,101427.03
2023-02-27T11:05:38.247Z,101421.97
2023-02-27T11:08:25.599Z,101414.66
2023-02-27T11:11:09.983Z,101417.72
2023-02-27T11:13:44.084Z,101404.41
2023-02-27T11:16:16.380Z,101405.84
2023-02-27T11:18:47.310Z,101397.59
2023-02-27T11:21:31.300Z,101409.75
2023-02-27T11:24:07.793Z,101407.00
2023-02-27T11:26:42.833Z,101401.97
2023-02-27T11:29:18.441Z,101401.44
2023-02-27T11:31:56.973Z,101397.75
2023-02-27T11:34:36.351Z,101405.13
2023-02-27T11:37:34.112Z,101392.25
2023-02-27T11:40:12.868Z,101393.63
2023-02-27T11:42:54.750Z,101393.09
2023-02-27T11:46:13.205Z,101389.59
2023-02-27T11:48:33.177Z,101387.38
2023-02-27T11:51:16.642Z,101387.31
2023-02-27T11:54:29.971Z,101383.31
2023-02-27T11:57:38.941Z,101391.66
2023-02-27T12:00:08.360Z,101378.25
2023-02-27T12:02:57.279Z,101371.50
2023-02-27T12:05:29.392Z,101378.47
2023-02-27T12:08:05.608Z,101389.88
2023-02-27T12:11:01.769Z,101375.28
2023-02-27T12:13:41.047Z,101379.13
2023-02-27T12:16:26.253Z,101377.00
2023-02-27T12:18:56.964Z,101373.72
2023-02-27T12:22:01.095Z,101380.81
2023-02-27T12:24:40.471Z,101372.97
2023-02-27T12:27:23.902Z,101373.84
2023-02-27T12:30:07.644Z,101373.81
2023-02-27T12:32:47.108Z,101373.06
2023-02-27T12:35:26.035Z,101366.84
2023-02-27T12:37:54.761Z,101374.75
2023-02-27T12:40:39.177Z,101376.13
2023-02-27T12:43:11.162Z,101380.38
2023-02-27T12:45:51.554Z,101382.16
2023-02-27T12:48:23.330Z,101374.25
2023-02-27T12:51:13.331Z,101378.47
2023-02-27T12:53:59.519Z,101381.75
2023-02-27T12:56:47.959Z,101372.25
2023-02-27T12:59:54.194Z,101367.81
2023-02-27T13:03:08.553Z,101365.06
2023-02-27T13:05:47.673Z,101368.03
2023-02-27T13:08:52.745Z,101365.16
2023-02-27T13:12:05.412Z,101363.06
2023-02-27T13:14:59.229Z,101366.66
2023-02-27T13:17:40.945Z,101357.03
2023-02-27T13:20:44.141Z,101360.31
2023-02-27T13:23:18.234Z,101360.59
2023-02-27T13:25:51.832Z,101360.09
2023-02-27T13:28:28.800Z,101352.91
2023-02-27T13:31:12.798Z,101355.75
2023-02-27T13:34:09.380Z,101360.31
2023-02-27T13:40:01.314Z,101361.16
2023-02-27T13:42:30.753Z,101364.44
2023-02-27T13:45:05.676Z,101365.59
2023-02-27T13:47:50.156Z,101357.03
2023-02-27T13:50:21.391Z,101351.03
2023-02-27T13:52:50.267Z,101356.63
2023-02-27T13:55:36.961Z,101356.72
2023-02-27T13:58:06.861Z,101347.03
2023-02-27T14:00:37.890Z,101354.22
2023-02-27T14:03:30.217Z,101349.47
2023-02-27T14:06:05.465Z,101345.47
2023-02-27T14:08:52.224Z,101347.34
2023-02-27T14:11:35.944Z,101348.19
2023-02-27T14:14:09.808Z,101356.41
2023-02-27T14:16:41.140Z,101350.31
2023-02-27T14:19:18.320Z,101358.88
2023-02-27T14:22:30.534Z,101365.72
2023-02-27T14:25:17.896Z,101362.44
2023-02-27T14:27:48.854Z,101361.06
2023-02-27T14:30:35.350Z,101361.38
2023-02-27T14:33:40.393Z,101371.94
2023-02-27T14:36:38.046Z,101364.94
2023-02-27T14:39:06.435Z,101370.44
2023-02-27T14:42:06.064Z,101375.50
2023-02-27T14:44:47.097Z,101393.63
2023-02-27T14:47:40.349Z,101390.00
2023-02-27T14:50:36.740Z,101407.19
2023-02-27T14:53:06.890Z,101402.03
2023-02-27T14:55:36.953Z,101401.91
2023-02-27T14:58:21.783Z,101395.34
2023-02-27T15:01:03.185Z,101400.25
2023-02-27T15:03:42.246Z,101402.31
2023-02-27T15:06:21.814Z,101392.81
2023-02-27T15:08:54.126Z,101383.69
2023-02-27T15:11:25.015Z,101389.41
2023-02-27T15:14:22.634Z,101392.44
2023-02-27T15:16:56.985Z,101386.56
2023-02-27T15:19:31.406Z,101392.09
2023-02-27T15:22:05.429Z,101401.28
2023-02-27T15:24:49.782Z,101395.75
2023-02-27T15:27:24.742Z,101388.19
2023-02-27T15:29:59.990Z,101387.50
2023-02-27T15:32:34.853Z,101388.34
2023-02-27T15:35:23.330Z,101397.53
2023-02-27T15:38:07.332Z,101391.00
2023-02-27T15:40:37.518Z,101403.56
2023-02-27T15:43:08.996Z,101397.53
2023-02-27T15:45:45.394Z,101398.72
2023-02-27T15:48:36.586Z,101405.97
2023-02-27T15:51:06.561Z,101409.13
2023-02-27T15:53:35.067Z,101411.25
2023-02-27T15:56:20.308Z,101421.88
2023-02-27T15:59:01.131Z,101426.00
2023-02-27T16:01:41.866Z,101420.06
2023-02-27T16:04:31.332Z,101422.06
2023-02-27T16:07:10.610Z,101427.66
2023-02-27T16:09:39.631Z,101429.69
2023-02-27T16:12:42.192Z,101438.22
2023-02-27T16:15:39.009Z,101431.16
2023-02-27T16:18:29.628Z,101448.59
2023-02-27T16:21:22.906Z,101439.66
2023-02-27T16:23:52.235Z,101441.91
2023-02-27T16:26:31.716Z,101435.16
2023-02-27T16:29:08.708Z,101448.03
2023-02-27T16:31:47.868Z,101449.56
2023-02-27T16:34:16.479Z,101461.97
2023-02-27T16:37:00.083Z,101452.50
2023-02-27T16:39:29.359Z,101461.59
2023-02-27T16:42:00.502Z,101467.63
2023-02-27T16:44:29.453Z,101460.47
2023-02-27T16:46:59.955Z,101467.91
2023-02-27T16:49:33.378Z,101469.47
2023-02-27T16:52:03.386Z,101471.09
2023-02-27T16:54:31.961Z,101476.84
2023-02-27T16:57:00.410Z,101477.28
2023-02-27T16:59:36.450Z,101480.03
2023-02-27T17:02:14.238Z,101474.97
2023-02-27T17:04:44.556Z,101470.81
2023-02-27T17:07:17.995Z,101482.84
2023-02-27T17:09:47.933Z,101482.00
2023-02-27T17:12:16.639Z,101481.63
2023-02-27T17:14:45.120Z,101488.88
2023-02-27T17:17:13.540Z,101485.94
2023-02-27T17:19:41.972Z,101481.63
2023-02-27T17:22:10.358Z,101493.66
2023-02-27T17:24:39.406Z,101496.28
2023-02-27T17:27:08.677Z,101490.63
2023-02-27T17:29:42.403Z,101498.81
2023-02-27T17:32:10.991Z,101506.22
2023-02-27T17:34:39.433Z,101510.75
2023-02-27T17:37:07.885Z,101503.78
2023-02-27T17:39:36.281Z,101506.81
2023-02-27T17:50:26.140Z,101502.00
2023-02-27T17:52:54.620Z,101502.94
2023-02-27T17:55:23.162Z,101514.13
2023-02-27T17:57:51.596Z,101513.09
2023-02-27T18:00:20.434Z,101514.66
2023-02-27T18:02:49.314Z,101519.63
2023-02-27T18:05:18.212Z,101515.22
2023-02-27T18:07:46.871Z,101511.66
2023-02-27T18:10:15.836Z,101513.25
2023-02-27T18:12:44.505Z,101523.84
2023-02-27T18:15:13.566Z,101514.91
2023-02-27T18:17:43.909Z,101516.97
2023-02-27T18:20:13.244Z,101517.25
2023-02-27T18:22:41.823Z,101516.22
2023-02-27T18:25:10.442Z,101515.72
2023-02-27T18:27:38.925Z,101522.94
2023-02-27T18:30:07.974Z,101518.84
2023-02-27T18:32:36.611Z,101519.56
2023-02-27T18:35:05.737Z,101516.19
2023-02-27T18:37:34.292Z,101518.81
2023-02-27T18:40:02.822Z,101527.53
2023-02-27T18:42:31.404Z,101520.66
2023-02-27T18:45:00.408Z,101516.03
2023-02-27T18:47:30.439Z,101524.50
2023-02-27T18:49:59.276Z,101527.56
2023-02-27T18:52:28.871Z,101531.91
2023-02-27T18:54:57.461Z,101535.88
2023-02-27T18:57:25.951Z,101530.34
2023-02-27T18:59:54.500Z,101534.00
2023-02-27T19:02:22.986Z,101533.06
2023-02-27T19:04:51.499Z,101527.88
2023-02-27T19:07:22.402Z,101533.81
2023-02-27T19:09:51.155Z,101533.56
2023-02-27T19:12:20.034Z,101532.59
2023-02-27T19:14:49.664Z,101528.00
2023-02-27T19:17:18.615Z,101536.09
2023-02-27T19:19:47.839Z,101536.50
2023-02-27T19:22:16.583Z,101525.56
2023-02-27T19:24:45.699Z,101532.53
2023-02-27T19:27:14.462Z,101535.88
2023-02-27T19:29:43.252Z,101542.31
2023-02-27T19:32:11.965Z,101526.16
2023-02-27T19:34:40.472Z,101532.50
2023-02-27T19:37:09.187Z,101532.31
2023-02-27T19:39:37.628Z,101530.91
2023-02-27T19:42:06.137Z,101530.16
2023-02-27T19:44:34.624Z,101530.97
2023-02-27T19:47:03.154Z,101528.53
2023-02-27T19:49:31.658Z,101534.56
2023-02-27T19:52:00.250Z,101530.91
2023-02-27T19:54:30.700Z,101536.84
2023-02-27T19:56:59.633Z,101527.16
2023-02-27T19:59:28.504Z,101537.56
2023-02-27T20:01:58.084Z,101534.78
2023-02-27T20:04:27.771Z,101542.47
2023-02-27T20:06:56.662Z,101535.44
2023-02-27T20:09:27.100Z,101542.47
2023-02-27T20:11:59.308Z,101536.31
2023-02-27T20:14:28.003Z,101538.94
2023-02-27T20:16:57.376Z,101538.00
2023-02-27T20:19:26.097Z,101534.53
2023-02-27T20:21:56.511Z,101530.13
2023-02-27T20:24:25.452Z,101537.16
2023-02-27T20:26:55.031Z,101548.59
2023-02-27T20:29:27.178Z,101538.75
2023-02-27T20:31:57.363Z,101535.03
2023-02-27T20:34:27.246Z,101532.97
2023-02-27T20:36:57.609Z,101537.22
2023-02-27T20:39:28.031Z,101534.31
2023-02-27T20:41:56.938Z,101534.78
2023-02-27T20:44:25.517Z,101536.50
2023-02-27T20:46:54.099Z,101534.22
2023-02-27T20:49:23.337Z,101532.78
2023-02-27T20:51:52.811Z,101536.38
2023-02-27T20:54:21.557Z,101533.31
2023-02-27T20:56:53.908Z,101530.28
2023-02-27T20:59:25.137Z,101532.75
2023-02-27T21:01:54.940Z,101528.78
2023-02-27T21:04:42.065Z,101540.50
2023-02-27T21:07:16.821Z,101539.47
2023-02-27T21:09:45.889Z,101540.72
2023-02-27T21:12:14.464Z,101538.03
2023-02-27T21:14:44.509Z,101537.75
2023-02-27T21:17:13.803Z,101535.91
2023-02-27T21:19:42.485Z,101537.41
2023-02-27T21:22:11.504Z,101530.78
2023-02-27T21:24:40.147Z,101533.06
2023-02-27T21:27:08.617Z,101533.06
2023-02-27T21:29:37.318Z,101551.03
2023-02-27T21:32:07.511Z,101547.56
2023-02-27T21:34:36.010Z,101538.06
2023-02-27T21:37:06.292Z,101535.44
2023-02-27T21:39:34.719Z,101530.88
2023-02-27T21:42:03.267Z,101543.44
2023-02-27T21:44:32.007Z,101548.19
2023-02-27T21:47:10.078Z,101539.47
2023-02-27T21:49:39.351Z,101549.28
2023-02-27T21:52:08.191Z,101542.16
2023-02-27T21:54:36.729Z,101547.16
2023-02-27T21:57:05.366Z,101541.81
2023-02-27T21:59:34.140Z,101540.03
2023-02-27T22:02:02.772Z,101541.72
2023-02-27T22:04:31.213Z,101543.19
2023-02-27T22:06:59.795Z,101542.94
2023-02-27T22:09:28.275Z,101542.75
2023-02-27T22:11:56.707Z,101542.47
2023-02-27T22:14:26.316Z,101536.22
2023-02-27T22:16:54.845Z,101549.38
2023-02-27T22:19:23.481Z,101556.22
2023-02-27T22:21:52.015Z,101554.69
2023-02-27T22:24:20.612Z,101552.81
2023-02-27T22:26:50.272Z,101549.63
2023-02-27T22:29:18.839Z,101548.25
2023-02-27T22:31:47.911Z,101549.13
2023-02-27T22:34:19.334Z,101548.09
2023-02-27T22:36:52.289Z,101549.78
2023-02-27T22:39:21.743Z,101546.13
2023-02-27T22:41:50.301Z,101546.91
2023-02-27T22:44:19.194Z,101557.44
2023-02-27T22:46:50.690Z,101548.75
2023-02-27T22:49:22.113Z,101545.03
2023-02-27T22:51:52.070Z,101559.44
2023-02-27T22:54:22.957Z,101559.97
2023-02-27T22:56:55.844Z,101549.81
2023-02-27T22:59:26.165Z,101559.13
2023-02-27T23:01:55.058Z,101557.94
2023-02-27T23:04:23.748Z,101568.72
2023-02-27T23:06:52.918Z,101567.53
2023-02-27T23:09:24.214Z,101566.44
2023-02-27T23:11:52.871Z,101567.94
2023-02-27T23:14:22.719Z,101571.16
2023-02-27T23:16:51.509Z,101572.09
2023-02-27T23:19:22.119Z,101577.16
2023-02-27T23:21:50.916Z,101568.38
2023-02-27T23:24:21.096Z,101570.88
2023-02-27T23:26:52.077Z,101578.09
2023-02-27T23:29:21.088Z,101577.34
2023-02-27T23:31:50.129Z,101573.97
2023-02-27T23:34:18.624Z,101581.75
2023-02-27T23:36:47.129Z,101587.94
2023-02-27T23:39:15.597Z,101580.72
2023-02-27T23:41:44.073Z,101584.22
2023-02-27T23:44:29.805Z,101586.66
2023-02-27T23:46:58.549Z,101593.00
2023-02-27T23:49:27.158Z,101586.59
2023-02-27T23:51:56.133Z,101588.94
2023-02-27T23:54:26.022Z,101586.16
2023-02-27T23:56:54.706Z,101580.84
2023-02-27T23:59:23.297Z,101575.31
